Airfield :
LOGIN :

Register | Disclaimer

   EN    FR    IT 

 










Legend :    VFR   Marginal VFR   IFR   Intensive IFR   Very Intensive IFR
Visi :
Ceiling :
>= 8 km
>= 3000ft
5 to 8 km
1000 to 3000 ft
1500m to 5 km
500 to 1000 ft
800 to 1500m
200 to 500 ft
< 800m
< 200 ft
Symbols :   Thunderstorms  Fog  Heavy snow  Heavy precipitations  Wind > 20 kt
SIGMETs :     Misc.  Thunderstorms  Icing  Turbulence  Mountain Waves  Volcanic Ashes







- Airport Elevation : 63 ft
- IATA code : BZM


EHWO - Woensdrecht Airbase

CURRENT METAR :
  • 180725Z AUTO 17003KT 300V020 9999 BKN320 OVC370 01/M00 Q1017 BLU 18003KT CAVOK RMK IFA

EXPIRED METARs :
  • 180710Z AUTO 17003KT 030V100 9999 OVC320 01/01 Q1018 BLU 18003KT CAVOK RMK IFA
  • 180655Z AUTO VRB02KT 9999 OVC320 00/00 Q1017 BLU 18003KT CAVOK
  • 180625Z AUTO VRB01KT 9999 SCT370 M00/M01 Q1017 BLU 18003KT CAVOK
  • 180555Z AUTO VRB02KT 9999 BKN390 01/00 Q1018 BLU 18003KT CAVOK
  • 180525Z AUTO 19003KT 9999 FEW390 01/M00 Q1018 BLU
  • 180455Z AUTO VRB02KT 9999 NCD 01/01 Q1018 BLU

TAF TAF EHWO
Valid from the 18 at 06:00 until the 18 at 18:00 UTC


180511Z 1806/1818 18006KT CAVOK
No reported NOTAMs for that airfield.



MET'MAP, your aeronautical weather chart ! - Copyright ORBIFLY December 2007 - Disclaimer

ORBIFLY MET'MAP TEAM :

Programming & Development : Alexandra Zaïnal
Concept & Development : Baudouin d'Aumeries
Co-Development & Prog : Marc-Olivier Méhu
Technical & hardware support : Manuel Goepfert

Contact : metmap@orbifly.com




SOURCES & CREDITS :

   NOAA